createdAt,value
2023-09-08T00:00:12.151Z,18.68
2023-09-08T00:02:41.298Z,18.72
2023-09-08T00:05:10.305Z,18.70
2023-09-08T00:07:39.305Z,18.63
2023-09-08T00:10:09.233Z,18.66
2023-09-08T00:12:37.886Z,18.64
2023-09-08T00:15:08.380Z,18.56
2023-09-08T00:17:39.113Z,18.53
2023-09-08T00:20:43.148Z,18.51
2023-09-08T00:23:12.091Z,18.44
2023-09-08T00:25:40.729Z,18.46
2023-09-08T00:28:09.429Z,18.41
2023-09-08T00:30:38.404Z,18.33
2023-09-08T00:33:10.014Z,18.24
2023-09-08T00:35:39.131Z,18.16
2023-09-08T00:38:08.604Z,18.12
2023-09-08T00:40:37.335Z,18.12
2023-09-08T00:43:06.231Z,18.04
2023-09-08T00:45:40.078Z,18.08
2023-09-08T00:48:11.414Z,18.04
2023-09-08T00:50:41.026Z,17.97
2023-09-08T00:53:10.563Z,17.90
2023-09-08T00:55:41.361Z,18.00
2023-09-08T00:58:10.300Z,17.93
2023-09-08T01:00:38.938Z,17.90
2023-09-08T01:03:07.717Z,17.89
2023-09-08T01:05:38.076Z,17.97
2023-09-08T01:08:09.091Z,17.96
2023-09-08T01:10:40.311Z,17.87
2023-09-08T01:13:08.949Z,17.94
2023-09-08T01:15:37.850Z,17.93
2023-09-08T01:18:09.807Z,17.83
2023-09-08T01:20:58.326Z,17.83
2023-09-08T01:23:38.711Z,17.82
2023-09-08T01:26:13.928Z,17.83
2023-09-08T01:28:45.789Z,17.84
2023-09-08T01:31:15.731Z,17.79
2023-09-08T01:33:50.323Z,17.70
2023-09-08T01:36:19.279Z,17.77
2023-09-08T01:38:48.065Z,17.68
2023-09-08T01:41:18.053Z,17.75
2023-09-08T01:43:46.889Z,17.79
2023-09-08T01:46:15.862Z,17.70
2023-09-08T01:48:44.945Z,17.67
2023-09-08T01:51:14.227Z,17.65
2023-09-08T01:53:43.419Z,17.63
2023-09-08T01:56:14.570Z,17.60
2023-09-08T01:58:45.523Z,17.65
2023-09-08T02:01:14.415Z,17.61
2023-09-08T02:03:43.638Z,17.58
2023-09-08T02:06:15.774Z,17.50
2023-09-08T02:08:58.591Z,17.55
2023-09-08T02:11:27.913Z,17.63
2023-09-08T02:13:58.799Z,17.58
2023-09-08T02:16:27.933Z,17.55
2023-09-08T02:18:56.847Z,17.67
2023-09-08T02:21:26.041Z,17.67
2023-09-08T02:23:55.963Z,17.57
2023-09-08T02:26:27.719Z,17.57
2023-09-08T02:28:57.916Z,17.52
2023-09-08T02:31:27.260Z,17.47
2023-09-08T02:34:07.441Z,17.47
2023-09-08T02:36:38.685Z,17.39
2023-09-08T02:39:08.192Z,17.42
2023-09-08T02:41:36.825Z,17.34
2023-09-08T02:44:08.019Z,17.25
2023-09-08T02:46:37.882Z,17.26
2023-09-08T02:49:06.645Z,17.17
2023-09-08T02:51:35.529Z,17.25
2023-09-08T02:54:24.376Z,17.33
2023-09-08T02:56:55.716Z,17.11
2023-09-08T02:59:25.695Z,17.02
2023-09-08T03:01:54.921Z,17.00
2023-09-08T03:04:26.476Z,16.97
2023-09-08T03:06:55.400Z,16.92
2023-09-08T03:09:24.188Z,16.74
2023-09-08T03:11:53.240Z,16.66
2023-09-08T03:14:22.347Z,16.63
2023-09-08T03:16:52.430Z,16.55
2023-09-08T03:19:21.215Z,16.47
2023-09-08T03:21:49.915Z,16.45
2023-09-08T03:24:18.693Z,16.42
2023-09-08T03:26:47.421Z,16.46
2023-09-08T03:29:16.009Z,16.51
2023-09-08T03:31:44.854Z,16.53
2023-09-08T03:34:15.410Z,16.47
2023-09-08T03:36:44.316Z,16.49
2023-09-08T03:39:13.056Z,16.51
2023-09-08T03:41:42.002Z,16.49
2023-09-08T03:44:11.139Z,16.44
2023-09-08T03:46:40.302Z,16.37
2023-09-08T03:49:12.521Z,16.37
2023-09-08T03:51:42.854Z,16.40
2023-09-08T03:54:14.211Z,16.34
2023-09-08T03:56:42.833Z,16.33
2023-09-08T03:59:11.709Z,16.25
2023-09-08T04:01:41.049Z,16.28
2023-09-08T04:04:12.388Z,16.20
2023-09-08T04:06:45.321Z,16.14
2023-09-08T04:09:14.138Z,16.16
2023-09-08T04:11:43.605Z,16.10
2023-09-08T04:14:12.533Z,16.08
2023-09-08T04:16:41.249Z,16.08
2023-09-08T04:19:13.513Z,16.10
2023-09-08T04:21:43.287Z,16.17
2023-09-08T04:24:13.855Z,16.20
2023-09-08T04:26:42.582Z,16.17
2023-09-08T04:29:11.674Z,16.23
2023-09-08T04:31:40.775Z,16.21
2023-09-08T04:34:09.623Z,16.17
2023-09-08T04:36:38.336Z,16.15
2023-09-08T04:39:07.031Z,16.13
2023-09-08T04:41:36.978Z,16.06
2023-09-08T04:44:06.055Z,16.08
2023-09-08T04:46:48.936Z,16.12
2023-09-08T04:49:17.586Z,16.14
2023-09-08T04:51:46.260Z,16.22
2023-09-08T04:54:14.990Z,16.22
2023-09-08T04:56:45.149Z,16.20
2023-09-08T04:59:13.795Z,16.25
2023-09-08T05:01:42.673Z,16.33
2023-09-08T05:04:11.543Z,16.31
2023-09-08T05:06:40.769Z,16.46
2023-09-08T05:09:09.899Z,16.49
2023-09-08T05:11:39.031Z,16.54
2023-09-08T05:14:09.919Z,16.57
2023-09-08T05:16:39.203Z,16.63
2023-09-08T05:19:08.253Z,16.53
2023-09-08T05:21:38.264Z,16.57
2023-09-08T05:24:08.148Z,16.62
2023-09-08T05:26:39.918Z,16.68
2023-09-08T05:29:09.999Z,16.69
2023-09-08T05:31:39.236Z,16.69
2023-09-08T05:34:08.075Z,16.67
2023-09-08T05:36:38.030Z,16.72
2023-09-08T05:39:06.947Z,16.77
2023-09-08T05:41:35.864Z,16.80
2023-09-08T05:44:04.801Z,16.83
2023-09-08T05:46:34.946Z,16.89
2023-09-08T05:49:03.738Z,17.00
2023-09-08T05:51:33.365Z,17.04
2023-09-08T05:54:02.232Z,17.10
2023-09-08T05:56:32.753Z,17.15
2023-09-08T05:59:02.322Z,17.27
2023-09-08T06:01:31.591Z,17.40
2023-09-08T06:04:02.596Z,17.38
2023-09-08T06:06:31.627Z,17.44
2023-09-08T06:09:00.736Z,17.60
2023-09-08T06:11:30.591Z,17.64
2023-09-08T06:14:00.567Z,17.79
2023-09-08T06:16:29.592Z,17.80
2023-09-08T06:18:58.506Z,17.82
2023-09-08T06:21:28.492Z,17.90
2023-09-08T06:23:57.202Z,17.97
2023-09-08T06:26:25.942Z,18.06
2023-09-08T06:28:55.006Z,18.13
2023-09-08T06:31:24.247Z,18.24
2023-09-08T06:33:53.402Z,18.33
2023-09-08T06:36:22.717Z,18.46
2023-09-08T06:38:53.144Z,18.58
2023-09-08T06:41:24.023Z,18.76
2023-09-08T06:43:53.126Z,18.88
2023-09-08T06:46:21.784Z,19.02
2023-09-08T06:48:50.670Z,19.16
2023-09-08T06:51:20.716Z,19.36
2023-09-08T06:53:58.072Z,19.56
2023-09-08T06:56:26.844Z,19.71
2023-09-08T06:58:55.451Z,19.84
2023-09-08T07:01:24.322Z,20.02
2023-09-08T07:03:53.351Z,20.21
2023-09-08T07:06:23.290Z,20.44
2023-09-08T07:08:52.318Z,20.57
2023-09-08T07:11:22.684Z,20.85
2023-09-08T07:13:51.513Z,21.28
2023-09-08T07:16:20.247Z,22.40
2023-09-08T07:18:49.184Z,24.19
2023-09-08T07:21:17.903Z,25.99
2023-09-08T07:24:08.378Z,27.73
2023-09-08T07:26:38.526Z,29.37
2023-09-08T07:29:10.290Z,29.60
2023-09-08T07:31:39.521Z,30.41
2023-09-08T07:34:08.387Z,30.40
2023-09-08T07:36:37.983Z,30.98
2023-09-08T07:39:11.709Z,31.55
2023-09-08T07:41:42.474Z,31.81
2023-09-08T07:44:11.329Z,32.59
2023-09-08T07:46:39.972Z,33.23
2023-09-08T07:49:08.587Z,34.28
2023-09-08T07:51:37.142Z,34.62
2023-09-08T07:54:06.351Z,33.61
2023-09-08T07:56:35.220Z,33.67
2023-09-08T07:59:05.698Z,34.85
2023-09-08T08:01:34.695Z,35.99
2023-09-08T08:04:04.911Z,35.52
2023-09-08T08:06:33.834Z,35.70
2023-09-08T08:09:03.410Z,35.10
2023-09-08T08:11:32.230Z,36.62
2023-09-08T08:14:02.107Z,37.55
2023-09-08T08:16:32.636Z,37.12
2023-09-08T08:19:04.561Z,36.61
2023-09-08T08:21:33.284Z,37.23
2023-09-08T08:24:02.368Z,37.37
2023-09-08T08:26:33.740Z,38.21
2023-09-08T08:29:02.435Z,37.98
2023-09-08T08:31:34.175Z,36.82
2023-09-08T08:34:02.973Z,36.91
2023-09-08T08:36:31.684Z,37.17
2023-09-08T08:39:00.531Z,38.36
2023-09-08T08:41:30.844Z,37.55
2023-09-08T08:44:00.786Z,36.42
2023-09-08T08:46:30.121Z,36.39
2023-09-08T08:49:01.643Z,37.37
2023-09-08T08:51:34.430Z,38.25
2023-09-08T08:54:05.481Z,37.94
2023-09-08T08:56:35.170Z,38.41
2023-09-08T08:59:04.129Z,40.49
2023-09-08T09:01:33.626Z,40.62
2023-09-08T09:04:07.782Z,39.48
2023-09-08T09:06:37.075Z,38.67
2023-09-08T09:09:06.173Z,39.46
2023-09-08T09:11:34.836Z,39.44
2023-09-08T09:14:03.721Z,39.50
2023-09-08T09:16:32.424Z,40.95
2023-09-08T09:19:03.396Z,40.83
2023-09-08T09:21:44.586Z,41.62
2023-09-08T09:24:18.832Z,41.25
2023-09-08T09:26:54.276Z,41.86
2023-09-08T09:29:23.103Z,42.51
2023-09-08T09:31:56.043Z,43.15
2023-09-08T09:34:26.314Z,42.55
2023-09-08T09:36:55.049Z,43.33
2023-09-08T09:39:27.521Z,42.43
2023-09-08T09:41:57.452Z,42.10
2023-09-08T09:44:27.145Z,41.49
2023-09-08T09:46:56.464Z,41.72
2023-09-08T09:49:28.165Z,42.12
2023-09-08T09:51:56.922Z,41.51
2023-09-08T09:54:25.571Z,42.49
2023-09-08T09:56:55.304Z,41.83
2023-09-08T09:59:25.345Z,43.11
2023-09-08T10:01:55.373Z,44.82
2023-09-08T10:04:24.541Z,45.41
2023-09-08T10:06:55.568Z,45.19
2023-09-08T10:09:26.087Z,44.79
2023-09-08T10:11:56.825Z,44.72
2023-09-08T10:14:27.108Z,42.76
2023-09-08T10:17:01.394Z,44.17
2023-09-08T10:19:31.399Z,43.26
2023-09-08T10:22:05.614Z,45.05
2023-09-08T10:24:36.919Z,43.79
2023-09-08T10:27:09.674Z,44.49
2023-09-08T10:29:38.953Z,45.13
2023-09-08T10:32:10.365Z,44.23
2023-09-08T10:34:42.255Z,43.39
2023-09-08T10:37:22.925Z,44.77
2023-09-08T10:39:52.069Z,46.81
2023-09-08T10:42:27.415Z,45.22
2023-09-08T10:45:05.504Z,46.85
2023-09-08T10:47:41.912Z,45.76
2023-09-08T10:50:18.928Z,42.02
2023-09-08T10:53:06.862Z,44.84
2023-09-08T10:55:42.870Z,44.63
2023-09-08T10:58:12.665Z,44.18
2023-09-08T11:00:49.856Z,45.24
2023-09-08T11:03:29.425Z,44.83
2023-09-08T11:05:58.555Z,44.24
2023-09-08T11:08:29.419Z,44.03
2023-09-08T11:10:58.929Z,42.71
2023-09-08T11:13:27.535Z,43.29
2023-09-08T11:15:56.201Z,43.85
2023-09-08T11:18:28.501Z,44.59
2023-09-08T11:20:58.512Z,43.79
2023-09-08T11:23:28.658Z,44.63
2023-09-08T11:25:57.559Z,46.33
2023-09-08T11:28:28.416Z,45.56
2023-09-08T11:30:57.781Z,45.48
2023-09-08T11:33:26.971Z,46.06
2023-09-08T11:35:59.192Z,46.53
2023-09-08T11:38:31.107Z,47.09
2023-09-08T11:41:00.912Z,46.45
2023-09-08T11:43:29.520Z,44.93
2023-09-08T11:45:58.313Z,46.75
2023-09-08T11:48:27.213Z,46.38
2023-09-08T11:50:56.203Z,45.98
2023-09-08T11:53:25.701Z,45.56
2023-09-08T11:55:56.083Z,46.22
2023-09-08T11:58:25.080Z,46.33
2023-09-08T12:00:53.882Z,45.31
2023-09-08T12:03:22.806Z,46.27
2023-09-08T12:05:54.081Z,46.20
2023-09-08T12:08:22.892Z,44.64
2023-09-08T12:10:51.748Z,44.55
2023-09-08T12:13:24.836Z,44.54
2023-09-08T12:16:20.440Z,45.53
2023-09-08T12:18:49.834Z,46.81
2023-09-08T12:21:18.590Z,45.25
2023-09-08T12:23:51.163Z,46.18
2023-09-08T12:26:20.462Z,45.39
2023-09-08T12:28:50.528Z,45.20
2023-09-08T12:31:19.823Z,43.57
2023-09-08T12:33:48.777Z,44.28
2023-09-08T12:36:19.406Z,45.40
2023-09-08T12:38:53.513Z,45.40
2023-09-08T12:41:22.402Z,43.79
2023-09-08T12:43:53.155Z,44.94
2023-09-08T12:46:21.855Z,44.88
2023-09-08T12:48:50.556Z,43.34
2023-09-08T12:51:19.396Z,44.70
2023-09-08T12:53:48.114Z,45.40
2023-09-08T12:56:17.328Z,45.96
2023-09-08T12:58:46.523Z,45.39
2023-09-08T13:01:16.626Z,44.08
2023-09-08T13:03:45.243Z,44.98
2023-09-08T13:06:13.963Z,45.78
2023-09-08T13:08:42.546Z,44.62
2023-09-08T13:11:11.085Z,42.25
2023-09-08T13:13:39.718Z,43.94
2023-09-08T13:16:08.321Z,44.92
2023-09-08T13:18:39.871Z,46.07
2023-09-08T13:21:08.792Z,45.53
2023-09-08T13:23:37.606Z,45.18
2023-09-08T13:26:06.175Z,45.61
2023-09-08T13:28:35.154Z,46.74
2023-09-08T13:31:04.140Z,45.38
2023-09-08T13:33:32.879Z,45.67
2023-09-08T13:36:02.850Z,44.89
2023-09-08T13:38:31.754Z,44.53
2023-09-08T13:41:00.416Z,43.54
2023-09-08T13:43:28.969Z,43.85
2023-09-08T13:45:57.633Z,44.27
2023-09-08T13:48:26.540Z,43.80
2023-09-08T13:50:56.077Z,42.41
2023-09-08T13:53:41.813Z,42.86
2023-09-08T13:56:19.999Z,42.35
2023-09-08T13:58:51.216Z,43.45
2023-09-08T14:01:21.254Z,43.94
2023-09-08T14:06:29.782Z,44.63
2023-09-08T14:11:56.117Z,42.34
2023-09-08T14:14:22.689Z,41.18
2023-09-08T14:16:51.442Z,41.92
2023-09-08T14:19:20.143Z,41.69
2023-09-08T14:21:48.724Z,41.89
2023-09-08T14:24:18.602Z,41.04
2023-09-08T14:26:47.414Z,41.14
2023-09-08T14:29:16.114Z,41.80
2023-09-08T14:31:44.978Z,40.02
2023-09-08T14:34:13.784Z,38.48
2023-09-08T14:36:42.357Z,38.26
2023-09-08T14:39:11.149Z,38.34
2023-09-08T14:41:41.176Z,37.98
2023-09-08T14:44:09.792Z,38.11
2023-09-08T14:46:38.384Z,38.58
2023-09-08T14:49:06.981Z,38.56
2023-09-08T14:51:35.750Z,38.17
2023-09-08T14:54:04.909Z,37.81
2023-09-08T14:56:33.532Z,37.09
2023-09-08T14:59:03.711Z,36.89
2023-09-08T15:01:32.558Z,36.32
2023-09-08T15:04:01.702Z,35.60
2023-09-08T15:06:30.484Z,35.18
2023-09-08T15:08:59.044Z,34.47
2023-09-08T15:11:27.594Z,33.86
2023-09-08T15:13:56.536Z,33.16
2023-09-08T15:16:26.633Z,32.83
2023-09-08T15:18:57.975Z,32.69
2023-09-08T15:21:28.755Z,32.53
2023-09-08T15:23:57.622Z,32.45
2023-09-08T15:26:26.297Z,32.40
2023-09-08T15:28:54.969Z,32.21
2023-09-08T15:31:24.682Z,32.00
2023-09-08T15:33:55.038Z,31.90
2023-09-08T15:36:24.088Z,31.75
2023-09-08T15:38:52.758Z,31.68
2023-09-08T15:41:21.582Z,31.64
2023-09-08T15:43:53.326Z,31.44
2023-09-08T15:46:22.477Z,31.32
2023-09-08T15:48:51.015Z,31.32
2023-09-08T15:51:20.982Z,30.99
2023-09-08T15:53:49.720Z,30.92
2023-09-08T15:56:18.335Z,30.86
2023-09-08T15:58:47.065Z,30.77
2023-09-08T16:01:15.856Z,30.68
2023-09-08T16:03:45.145Z,30.65
2023-09-08T16:06:14.659Z,30.49
2023-09-08T16:08:44.644Z,30.41
2023-09-08T16:11:13.523Z,30.35
2023-09-08T16:13:42.194Z,30.34
2023-09-08T16:16:10.808Z,30.41
2023-09-08T16:18:39.489Z,30.25
2023-09-08T16:21:08.049Z,30.11
2023-09-08T16:23:36.940Z,30.03
2023-09-08T16:26:07.123Z,30.09
2023-09-08T16:28:36.102Z,29.95
2023-09-08T16:31:06.607Z,29.78
2023-09-08T16:33:36.226Z,29.64
2023-09-08T16:36:05.188Z,29.54
2023-09-08T16:38:35.729Z,29.52
2023-09-08T16:41:04.370Z,29.52
2023-09-08T16:43:34.662Z,29.36
2023-09-08T16:46:04.701Z,29.38
2023-09-08T16:48:33.553Z,29.25
2023-09-08T16:51:02.097Z,29.24
2023-09-08T16:53:30.780Z,29.06
2023-09-08T16:55:59.659Z,28.98
2023-09-08T16:58:30.230Z,29.02
2023-09-08T17:01:00.388Z,29.07
2023-09-08T17:03:29.052Z,28.94
2023-09-08T17:05:57.763Z,28.87
2023-09-08T17:08:29.006Z,28.66
2023-09-08T17:10:58.494Z,28.43
2023-09-08T17:13:27.271Z,28.20
2023-09-08T17:15:56.037Z,28.01
2023-09-08T17:18:26.959Z,27.83
2023-09-08T17:20:57.724Z,27.67
2023-09-08T17:23:26.405Z,27.49
2023-09-08T17:25:55.151Z,27.31
2023-09-08T17:28:23.856Z,27.14
2023-09-08T17:30:52.709Z,26.94
2023-09-08T17:33:21.492Z,26.82
2023-09-08T17:35:51.586Z,26.64
2023-09-08T17:38:20.220Z,26.48
2023-09-08T17:40:48.922Z,26.32
2023-09-08T17:43:17.737Z,26.35
2023-09-08T17:45:47.506Z,26.19
2023-09-08T17:48:16.475Z,26.02
2023-09-08T17:50:45.240Z,25.91
2023-09-08T17:53:15.453Z,25.79
2023-09-08T17:55:43.952Z,25.62
2023-09-08T17:58:12.961Z,25.44
2023-09-08T18:00:41.805Z,25.31
2023-09-08T18:03:12.820Z,25.20
2023-09-08T18:05:44.664Z,25.06
2023-09-08T18:08:13.731Z,24.98
2023-09-08T18:10:43.853Z,24.94
2023-09-08T18:13:12.595Z,24.78
2023-09-08T18:15:41.224Z,24.59
2023-09-08T18:18:10.206Z,24.51
2023-09-08T18:20:38.925Z,24.39
2023-09-08T18:23:07.426Z,24.22
2023-09-08T18:25:36.132Z,24.08
2023-09-08T18:28:08.776Z,23.98
2023-09-08T18:30:37.459Z,23.87
2023-09-08T18:33:06.454Z,23.84
2023-09-08T18:35:35.296Z,23.85
2023-09-08T18:38:04.510Z,23.76
2023-09-08T18:40:33.176Z,23.61
2023-09-08T18:43:01.908Z,23.57
2023-09-08T18:45:31.879Z,23.47
2023-09-08T18:48:00.595Z,23.37
2023-09-08T18:50:29.162Z,23.31
2023-09-08T18:52:57.829Z,23.26
2023-09-08T18:55:26.598Z,23.22
2023-09-08T18:57:55.462Z,23.03
2023-09-08T19:00:24.083Z,22.93
2023-09-08T19:02:54.426Z,22.87
2023-09-08T19:05:23.122Z,22.90
2023-09-08T19:07:51.973Z,22.95
2023-09-08T19:10:20.717Z,22.89
2023-09-08T19:12:49.249Z,22.73
2023-09-08T19:15:18.401Z,22.50
2023-09-08T19:17:47.664Z,22.42
2023-09-08T19:20:17.715Z,22.36
2023-09-08T19:22:46.305Z,22.23
2023-09-08T19:25:15.317Z,22.23
2023-09-08T19:27:44.305Z,22.23
2023-09-08T19:30:13.767Z,22.31
2023-09-08T19:32:43.350Z,22.32
2023-09-08T19:35:12.752Z,22.25
2023-09-08T19:37:43.938Z,22.02
2023-09-08T19:40:12.938Z,21.84
2023-09-08T19:42:41.698Z,21.75
2023-09-08T19:45:11.332Z,21.84
2023-09-08T19:47:40.203Z,21.95
2023-09-08T19:50:09.901Z,21.80
2023-09-08T19:52:40.463Z,21.73
2023-09-08T19:55:12.248Z,21.67
2023-09-08T19:57:40.951Z,21.57
2023-09-08T20:00:10.562Z,21.45
2023-09-08T20:02:39.489Z,21.39
2023-09-08T20:05:08.826Z,21.33
2023-09-08T20:07:39.617Z,21.21
2023-09-08T20:10:10.360Z,21.16
2023-09-08T20:12:42.742Z,21.10
2023-09-08T20:15:12.754Z,21.16
2023-09-08T20:17:43.939Z,21.04
2023-09-08T20:20:13.538Z,21.01
2023-09-08T20:22:42.425Z,20.96
2023-09-08T20:25:11.423Z,20.95
2023-09-08T20:27:41.609Z,20.95
2023-09-08T20:30:11.231Z,21.01
2023-09-08T20:32:39.891Z,20.97
2023-09-08T20:35:09.952Z,20.95
2023-09-08T20:37:39.678Z,20.97
2023-09-08T20:40:10.421Z,20.92
2023-09-08T20:42:39.112Z,20.83
2023-09-08T20:45:10.219Z,20.81
2023-09-08T20:47:39.083Z,20.88
2023-09-08T20:50:08.798Z,20.76
2023-09-08T20:52:38.505Z,20.71
2023-09-08T20:55:12.848Z,20.65
2023-09-08T20:57:41.885Z,20.53
2023-09-08T21:00:14.206Z,20.58
2023-09-08T21:02:43.247Z,20.59
2023-09-08T21:05:12.122Z,20.55
2023-09-08T21:07:41.460Z,20.43
2023-09-08T21:10:10.809Z,20.28
2023-09-08T21:12:39.629Z,20.18
2023-09-08T21:15:09.378Z,20.13
2023-09-08T21:17:39.648Z,20.09
2023-09-08T21:20:09.897Z,20.06
2023-09-08T21:22:38.821Z,20.14
2023-09-08T21:25:08.023Z,20.18
2023-09-08T21:27:36.996Z,20.18
2023-09-08T21:30:06.759Z,20.13
2023-09-08T21:32:35.840Z,20.10
2023-09-08T21:35:06.938Z,20.05
2023-09-08T21:37:36.521Z,19.98
2023-09-08T21:40:06.238Z,19.99
2023-09-08T21:42:35.196Z,19.94
2023-09-08T21:45:06.634Z,19.99
2023-09-08T21:47:35.996Z,19.98
2023-09-08T21:50:06.967Z,20.00
2023-09-08T21:52:39.049Z,19.87
2023-09-08T21:55:09.290Z,19.77
2023-09-08T21:58:01.604Z,19.65
2023-09-08T22:00:34.680Z,19.69
2023-09-08T22:03:04.389Z,19.64
2023-09-08T22:05:35.933Z,19.68
2023-09-08T22:08:05.787Z,19.81
2023-09-08T22:10:34.498Z,19.81
2023-09-08T22:13:03.792Z,19.77
2023-09-08T22:15:34.179Z,19.82
2023-09-08T22:18:03.418Z,19.82
2023-09-08T22:20:32.312Z,19.69
2023-09-08T22:23:02.466Z,19.60
2023-09-08T22:25:35.174Z,19.50
2023-09-08T22:28:04.628Z,19.43
2023-09-08T22:30:33.826Z,19.51
2023-09-08T22:33:05.518Z,19.44
2023-09-08T22:35:34.218Z,19.42
2023-09-08T22:38:05.941Z,19.51
2023-09-08T22:40:34.746Z,19.52
2023-09-08T22:43:03.825Z,19.44
2023-09-08T22:45:32.742Z,19.44
2023-09-08T22:48:01.740Z,19.40
2023-09-08T22:50:31.416Z,19.38
2023-09-08T22:53:01.359Z,19.46
2023-09-08T22:55:32.102Z,19.35
2023-09-08T22:58:00.898Z,19.39
2023-09-08T23:00:29.619Z,19.34
2023-09-08T23:02:58.500Z,19.38
2023-09-08T23:05:27.265Z,19.27
2023-09-08T23:07:55.873Z,19.32
2023-09-08T23:10:24.502Z,19.41
2023-09-08T23:12:54.457Z,19.40
2023-09-08T23:15:25.871Z,19.41
2023-09-08T23:17:54.748Z,19.51
2023-09-08T23:20:23.588Z,19.42
2023-09-08T23:22:52.982Z,19.36
2023-09-08T23:25:21.894Z,19.34
2023-09-08T23:27:50.928Z,19.41
2023-09-08T23:30:21.510Z,19.37
2023-09-08T23:32:50.847Z,19.36
2023-09-08T23:35:19.508Z,19.28
2023-09-08T23:37:48.972Z,19.17
2023-09-08T23:40:17.696Z,19.23
2023-09-08T23:42:49.007Z,19.25
2023-09-08T23:45:18.139Z,19.20
2023-09-08T23:47:51.657Z,19.15
2023-09-08T23:50:20.816Z,19.13
2023-09-08T23:52:49.429Z,19.16
2023-09-08T23:55:18.298Z,19.13
2023-09-08T23:57:47.335Z,19.06
